createdAt,value
2018-08-31T00:02:50.989Z,15.90
2018-08-31T00:06:12.212Z,17.50
2018-08-31T00:10:01.351Z,15.90
2018-08-31T00:13:05.878Z,14.17
2018-08-31T00:16:10.340Z,16.47
2018-08-31T00:19:14.774Z,15.37
2018-08-31T00:22:19.209Z,15.43
2018-08-31T00:26:10.998Z,15.20
2018-08-31T00:29:50.001Z,14.43
2018-08-31T00:33:51.394Z,16.67
2018-08-31T00:40:22.526Z,15.60
2018-08-31T00:44:48.029Z,16.13
2018-08-31T00:47:52.457Z,15.80
2018-08-31T00:50:56.893Z,15.23
2018-08-31T00:54:01.334Z,13.83
2018-08-31T00:57:05.851Z,14.73
2018-08-31T01:00:10.277Z,14.73
2018-08-31T01:03:14.737Z,14.67
2018-08-31T01:06:19.169Z,12.67
2018-08-31T01:09:23.874Z,13.20
2018-08-31T01:12:28.505Z,14.63
2018-08-31T01:15:32.925Z,14.30
2018-08-31T01:18:37.382Z,13.03
2018-08-31T01:21:41.953Z,12.67
2018-08-31T01:24:46.420Z,12.00
2018-08-31T01:27:50.902Z,12.90
2018-08-31T01:30:55.354Z,14.00
2018-08-31T01:33:59.823Z,12.03
2018-08-31T01:37:04.301Z,12.17
2018-08-31T01:40:08.821Z,14.20
2018-08-31T01:43:13.275Z,11.00
2018-08-31T01:46:17.782Z,10.50
2018-08-31T01:49:22.255Z,10.77
2018-08-31T01:52:26.689Z,9.57
2018-08-31T01:55:31.162Z,10.97
2018-08-31T01:58:35.615Z,11.33
2018-08-31T02:01:40.102Z,13.63
2018-08-31T02:04:44.566Z,10.77
2018-08-31T02:07:49.004Z,10.00
2018-08-31T02:10:53.443Z,14.03
2018-08-31T02:13:57.898Z,10.87
2018-08-31T02:17:02.340Z,9.63
2018-08-31T02:20:06.838Z,8.77
2018-08-31T02:23:11.293Z,11.00
2018-08-31T02:26:15.774Z,10.23
2018-08-31T02:29:20.222Z,9.77
2018-08-31T02:32:24.653Z,8.53
2018-08-31T02:35:29.097Z,8.83
2018-08-31T02:38:33.511Z,11.50
2018-08-31T02:41:37.950Z,10.87
2018-08-31T02:44:42.379Z,9.93
2018-08-31T02:47:47.295Z,11.90
2018-08-31T02:50:51.722Z,8.00
2018-08-31T02:53:56.121Z,9.17
2018-08-31T02:57:00.544Z,9.07
2018-08-31T03:00:05.238Z,11.07
2018-08-31T03:03:09.726Z,10.90
2018-08-31T03:06:14.150Z,8.13
2018-08-31T03:09:18.570Z,10.80
2018-08-31T03:12:23.025Z,10.73
2018-08-31T03:15:27.549Z,15.10
2018-08-31T03:18:31.958Z,11.47
2018-08-31T03:21:36.410Z,11.00
2018-08-31T03:24:40.843Z,8.63
2018-08-31T03:27:45.278Z,11.73
2018-08-31T03:30:49.721Z,10.40
2018-08-31T03:33:54.158Z,11.77
2018-08-31T03:36:58.656Z,10.43
2018-08-31T03:40:03.118Z,12.67
2018-08-31T03:43:07.586Z,8.50
2018-08-31T03:46:12.021Z,7.97
2018-08-31T03:49:16.466Z,11.77
2018-08-31T03:52:20.894Z,8.60
2018-08-31T03:55:25.354Z,8.93
2018-08-31T03:58:29.855Z,10.67
2018-08-31T04:01:34.286Z,8.10
2018-08-31T04:04:38.714Z,8.53
2018-08-31T04:07:43.146Z,9.63
2018-08-31T04:10:47.579Z,12.37
2018-08-31T04:13:51.995Z,9.57
2018-08-31T04:16:56.466Z,8.43
2018-08-31T04:20:00.896Z,8.17
2018-08-31T04:23:05.573Z,8.73
2018-08-31T04:26:10.021Z,9.23
2018-08-31T04:29:14.418Z,8.37
2018-08-31T04:32:18.904Z,7.60
2018-08-31T04:35:23.346Z,10.23
2018-08-31T04:38:27.769Z,8.63
2018-08-31T04:41:32.203Z,10.00
2018-08-31T04:44:36.615Z,11.77
2018-08-31T04:47:41.041Z,15.17
2018-08-31T04:50:45.475Z,10.23
2018-08-31T04:53:49.913Z,10.83
2018-08-31T04:56:54.345Z,14.93
2018-08-31T04:59:58.938Z,10.77
2018-08-31T05:03:03.377Z,8.60
2018-08-31T05:06:07.810Z,10.13
2018-08-31T05:09:12.878Z,9.50
2018-08-31T05:12:17.348Z,8.00
2018-08-31T05:15:21.757Z,10.00
2018-08-31T05:18:26.177Z,10.37
2018-08-31T05:21:30.679Z,12.63
2018-08-31T05:24:35.083Z,9.67
2018-08-31T05:27:39.536Z,8.93
2018-08-31T05:30:43.957Z,9.37
2018-08-31T05:33:48.449Z,8.60
2018-08-31T05:36:52.899Z,8.47
2018-08-31T05:39:57.364Z,7.90
2018-08-31T05:43:01.824Z,7.10
2018-08-31T05:46:06.580Z,10.10
2018-08-31T05:49:11.040Z,9.70
2018-08-31T05:52:15.488Z,12.63
2018-08-31T05:55:19.977Z,11.60
2018-08-31T05:58:24.506Z,8.00
2018-08-31T06:01:28.942Z,9.03
2018-08-31T06:04:33.577Z,10.50
2018-08-31T06:07:38.031Z,10.43
2018-08-31T06:10:42.470Z,13.93
2018-08-31T06:13:46.997Z,12.03
2018-08-31T06:16:51.545Z,14.30
2018-08-31T06:19:55.997Z,17.13
2018-08-31T06:23:00.444Z,8.87
2018-08-31T06:26:04.947Z,10.37
2018-08-31T06:29:09.472Z,10.67
2018-08-31T06:32:13.931Z,14.63
2018-08-31T06:35:18.451Z,17.00
2018-08-31T06:38:22.946Z,13.53
2018-08-31T06:41:27.406Z,12.63
2018-08-31T06:44:31.883Z,11.90
2018-08-31T06:47:36.333Z,11.13
2018-08-31T06:50:40.773Z,13.87
2018-08-31T06:53:45.324Z,15.20
2018-08-31T06:56:49.946Z,11.73
2018-08-31T06:59:54.386Z,13.07
2018-08-31T07:02:58.894Z,10.33
2018-08-31T07:06:03.373Z,11.33
2018-08-31T07:09:10.726Z,9.77
2018-08-31T07:12:21.918Z,11.70
2018-08-31T07:15:26.330Z,8.23
2018-08-31T07:18:30.790Z,13.13
2018-08-31T07:21:35.281Z,7.77
2018-08-31T07:24:39.743Z,8.50
2018-08-31T07:27:44.194Z,8.97
2018-08-31T07:30:48.633Z,8.70
2018-08-31T07:33:53.113Z,9.03
2018-08-31T07:36:57.587Z,10.03
2018-08-31T07:40:02.065Z,7.70
2018-08-31T07:43:06.563Z,12.00
2018-08-31T07:46:11.070Z,11.23
2018-08-31T07:49:15.543Z,8.57
2018-08-31T07:52:20.002Z,9.80
2018-08-31T07:55:24.454Z,7.47
2018-08-31T07:58:29.014Z,10.70
2018-08-31T08:01:33.494Z,9.33
2018-08-31T08:04:37.938Z,11.00
2018-08-31T08:07:42.419Z,8.70
2018-08-31T08:10:46.861Z,8.73
2018-08-31T08:13:52.162Z,9.87
2018-08-31T08:16:56.650Z,8.73
2018-08-31T08:20:01.107Z,8.30
2018-08-31T08:23:05.578Z,9.67
2018-08-31T08:26:10.030Z,10.60
2018-08-31T08:29:14.483Z,8.63
2018-08-31T08:32:18.924Z,12.93
2018-08-31T08:35:23.386Z,8.43
2018-08-31T08:38:27.810Z,10.83
2018-08-31T08:41:32.335Z,10.00
2018-08-31T08:44:36.809Z,10.57
2018-08-31T08:47:41.262Z,11.00
2018-08-31T08:50:45.734Z,10.53
2018-08-31T08:53:50.173Z,11.17
2018-08-31T08:56:54.694Z,10.57
2018-08-31T08:59:59.176Z,13.93
2018-08-31T09:03:03.697Z,13.10
2018-08-31T09:06:08.146Z,14.00
2018-08-31T09:09:12.570Z,14.93
2018-08-31T09:12:17.538Z,11.00
2018-08-31T09:15:21.977Z,13.27
2018-08-31T09:18:28.806Z,16.30
2018-08-31T09:21:33.201Z,13.67
2018-08-31T09:24:37.758Z,13.90
2018-08-31T09:27:42.244Z,13.57
2018-08-31T09:30:47.248Z,11.63
2018-08-31T09:33:51.721Z,12.97
2018-08-31T09:36:56.207Z,14.40
2018-08-31T09:40:00.717Z,11.53
2018-08-31T09:43:05.174Z,16.43
2018-08-31T09:46:09.586Z,14.27
2018-08-31T09:49:14.009Z,15.03
2018-08-31T09:52:18.906Z,15.93
2018-08-31T09:55:23.369Z,14.10
2018-08-31T09:58:27.805Z,15.83
2018-08-31T10:01:34.809Z,12.00
2018-08-31T10:04:39.241Z,14.30
2018-08-31T10:07:43.662Z,14.37
2018-08-31T10:10:48.585Z,17.37
2018-08-31T10:13:52.969Z,17.17
2018-08-31T10:16:57.385Z,17.73
2018-08-31T10:20:01.815Z,14.83
2018-08-31T10:23:06.271Z,14.70
2018-08-31T10:26:10.708Z,13.87
2018-08-31T10:29:15.165Z,17.73
2018-08-31T10:32:19.635Z,13.80
2018-08-31T10:35:24.209Z,15.73
2018-08-31T10:38:28.786Z,21.87
2018-08-31T10:41:33.233Z,19.23
2018-08-31T10:44:37.805Z,18.13
2018-08-31T10:47:42.253Z,18.90
2018-08-31T10:50:46.754Z,17.83
2018-08-31T10:53:51.263Z,19.77
2018-08-31T10:56:55.766Z,22.60
2018-08-31T11:00:00.239Z,22.37
2018-08-31T11:03:04.769Z,22.20
2018-08-31T11:06:09.217Z,22.13
2018-08-31T11:09:13.669Z,20.87
2018-08-31T11:12:18.099Z,19.83
2018-08-31T11:15:22.646Z,23.00
2018-08-31T11:18:27.098Z,21.07
2018-08-31T11:21:31.622Z,21.97
2018-08-31T11:24:36.113Z,23.37
2018-08-31T11:27:40.605Z,19.67
2018-08-31T11:30:45.030Z,19.37
2018-08-31T11:33:49.445Z,20.97
2018-08-31T11:36:53.867Z,20.20
2018-08-31T11:39:58.770Z,20.17
2018-08-31T11:43:03.190Z,18.87
2018-08-31T11:46:07.697Z,20.17
2018-08-31T11:49:12.149Z,22.97
2018-08-31T11:52:16.677Z,20.13
2018-08-31T11:55:21.237Z,23.27
2018-08-31T11:58:25.577Z,21.97
2018-08-31T12:01:30.132Z,19.70
2018-08-31T12:04:34.489Z,18.87
2018-08-31T12:07:38.945Z,20.47
2018-08-31T12:10:43.418Z,22.60
2018-08-31T12:13:47.842Z,22.87
2018-08-31T12:16:52.273Z,22.87
2018-08-31T12:19:56.689Z,20.30
2018-08-31T12:23:01.118Z,21.67
2018-08-31T12:26:05.757Z,22.77
2018-08-31T12:29:10.170Z,20.83
2018-08-31T12:32:14.590Z,21.30
2018-08-31T12:35:19.010Z,21.30
2018-08-31T12:38:23.442Z,21.30
2018-08-31T12:41:27.905Z,20.77
2018-08-31T12:44:32.323Z,20.80
2018-08-31T12:47:36.782Z,19.90
2018-08-31T12:50:41.189Z,18.93
2018-08-31T12:53:45.625Z,16.93
2018-08-31T12:56:50.061Z,23.80
2018-08-31T13:00:00.518Z,18.97
2018-08-31T13:03:05.127Z,23.07
2018-08-31T13:06:09.564Z,22.23
2018-08-31T13:09:13.989Z,27.00
2018-08-31T13:12:18.439Z,21.70
2018-08-31T13:15:22.901Z,22.47
2018-08-31T13:18:27.330Z,23.57
2018-08-31T13:21:31.830Z,19.73
2018-08-31T13:24:36.317Z,22.87
2018-08-31T13:27:40.785Z,17.40
2018-08-31T13:30:45.262Z,22.77
2018-08-31T13:33:49.755Z,20.37
2018-08-31T13:36:54.393Z,17.60
2018-08-31T13:39:58.846Z,19.90
2018-08-31T13:43:03.270Z,18.33
2018-08-31T13:46:07.820Z,19.10
2018-08-31T13:49:12.262Z,18.60
2018-08-31T13:52:16.691Z,19.07
2018-08-31T13:55:21.117Z,17.27
2018-08-31T13:58:25.603Z,18.63
2018-08-31T14:01:29.973Z,18.63
2018-08-31T14:04:34.397Z,20.13
2018-08-31T14:07:38.832Z,19.03
2018-08-31T14:10:43.414Z,20.60
2018-08-31T14:13:48.010Z,20.93
2018-08-31T14:16:52.418Z,20.20
2018-08-31T14:19:56.874Z,22.57
2018-08-31T14:23:01.287Z,21.53
2018-08-31T14:26:05.751Z,20.87
2018-08-31T14:29:10.241Z,18.73
2018-08-31T14:32:14.679Z,17.57
2018-08-31T14:35:19.120Z,20.13
2018-08-31T14:38:23.554Z,18.97
2018-08-31T14:41:27.981Z,17.47
2018-08-31T14:44:32.417Z,21.37
2018-08-31T14:47:36.906Z,17.30
2018-08-31T14:50:41.393Z,20.37
2018-08-31T14:53:45.882Z,22.70
2018-08-31T14:56:50.298Z,19.80
2018-08-31T14:59:54.729Z,17.67
2018-08-31T15:02:59.154Z,20.53
2018-08-31T15:06:03.578Z,18.77
2018-08-31T15:09:10.138Z,17.60
2018-08-31T15:12:14.557Z,18.67
2018-08-31T15:15:19.072Z,25.03
2018-08-31T15:18:23.474Z,19.77
2018-08-31T15:21:28.025Z,22.10
2018-08-31T15:24:32.448Z,19.63
2018-08-31T15:27:36.896Z,21.07
2018-08-31T15:30:41.387Z,21.80
2018-08-31T15:33:45.857Z,23.47
2018-08-31T15:36:50.343Z,19.07
2018-08-31T15:39:54.800Z,23.90
2018-08-31T15:42:59.234Z,20.67
2018-08-31T15:46:03.693Z,23.53
2018-08-31T15:49:08.138Z,19.27
2018-08-31T15:52:12.585Z,20.13
2018-08-31T15:55:17.025Z,20.93
2018-08-31T15:58:21.516Z,19.43
2018-08-31T16:01:26.041Z,18.57
2018-08-31T16:04:30.526Z,19.57
2018-08-31T16:07:34.965Z,21.80
2018-08-31T16:10:39.450Z,21.53
2018-08-31T16:13:43.937Z,18.63
2018-08-31T16:16:48.463Z,23.47
2018-08-31T16:19:52.989Z,23.17
2018-08-31T16:22:57.515Z,20.72
2018-08-31T16:26:01.982Z,19.77
2018-08-31T16:29:06.465Z,20.97
2018-08-31T16:32:10.993Z,18.70
2018-08-31T16:35:15.431Z,18.50
2018-08-31T16:38:19.853Z,19.83
2018-08-31T16:41:24.279Z,20.03
2018-08-31T16:44:28.685Z,19.33
2018-08-31T16:47:33.118Z,19.90
2018-08-31T16:50:37.530Z,20.83
2018-08-31T16:53:42.057Z,18.97
2018-08-31T16:56:46.553Z,21.43
2018-08-31T16:59:51.009Z,18.87
2018-08-31T17:02:55.509Z,18.37
2018-08-31T17:06:00.025Z,19.90
2018-08-31T17:09:06.353Z,23.37
2018-08-31T17:12:10.777Z,23.70
2018-08-31T17:15:15.190Z,24.27
2018-08-31T17:18:19.640Z,20.57
2018-08-31T17:21:24.079Z,18.23
2018-08-31T17:24:28.537Z,24.20
2018-08-31T17:27:38.140Z,19.80
2018-08-31T17:30:42.576Z,21.53
2018-08-31T17:33:52.221Z,19.60
2018-08-31T17:37:01.785Z,19.23
2018-08-31T17:40:06.234Z,20.77
2018-08-31T17:43:10.675Z,20.27
2018-08-31T17:46:15.150Z,17.80
2018-08-31T17:49:19.661Z,22.17
2018-08-31T17:52:24.182Z,16.90
2018-08-31T17:55:28.635Z,20.47
2018-08-31T17:58:33.091Z,16.43
2018-08-31T18:01:37.601Z,16.20
2018-08-31T18:04:42.051Z,16.73
2018-08-31T18:07:46.482Z,18.33
2018-08-31T18:10:50.915Z,16.77
2018-08-31T18:13:55.362Z,18.67
2018-08-31T18:16:59.793Z,16.27
2018-08-31T18:20:04.321Z,16.03
2018-08-31T18:23:08.770Z,14.90
2018-08-31T18:26:13.194Z,20.80
2018-08-31T18:29:17.674Z,17.13
2018-08-31T18:32:22.156Z,18.10
2018-08-31T18:35:26.632Z,21.33
2018-08-31T18:38:31.138Z,19.17
2018-08-31T18:41:35.619Z,22.73
2018-08-31T18:44:40.043Z,20.53
2018-08-31T18:47:44.568Z,24.67
2018-08-31T18:50:49.033Z,19.43
2018-08-31T18:53:53.450Z,20.50
2018-08-31T18:56:57.865Z,22.63
2018-08-31T19:00:02.289Z,22.13
2018-08-31T19:03:06.693Z,17.00
2018-08-31T19:06:11.490Z,19.90
2018-08-31T19:09:15.917Z,20.53
2018-08-31T19:12:20.338Z,21.27
2018-08-31T19:15:24.773Z,22.73
2018-08-31T19:18:29.401Z,15.43
2018-08-31T19:21:33.818Z,16.90
2018-08-31T19:24:38.237Z,14.80
2018-08-31T19:27:42.653Z,17.97
2018-08-31T19:30:47.089Z,13.90
2018-08-31T19:33:51.604Z,15.53
2018-08-31T19:36:56.165Z,15.80
2018-08-31T19:40:00.627Z,14.17
2018-08-31T19:43:05.276Z,11.47
2018-08-31T19:46:09.714Z,12.13
2018-08-31T19:49:14.168Z,13.93
2018-08-31T19:52:18.649Z,11.53
2018-08-31T19:55:23.221Z,13.03
2018-08-31T19:58:27.673Z,15.20
2018-08-31T20:01:32.168Z,11.93
2018-08-31T20:04:36.691Z,13.60
2018-08-31T20:07:41.128Z,13.43
2018-08-31T20:10:45.578Z,13.47
2018-08-31T20:13:50.141Z,15.57
2018-08-31T20:16:54.589Z,13.30
2018-08-31T20:19:59.065Z,12.63
2018-08-31T20:23:03.499Z,13.27
2018-08-31T20:26:07.952Z,16.20
2018-08-31T20:29:12.399Z,14.23
2018-08-31T20:32:16.859Z,14.00
2018-08-31T20:35:21.323Z,12.90
2018-08-31T20:38:25.745Z,11.87
2018-08-31T20:41:30.199Z,13.57
2018-08-31T20:44:34.708Z,16.60
2018-08-31T20:47:39.151Z,14.27
2018-08-31T20:50:43.657Z,14.50
2018-08-31T20:53:48.185Z,13.77
2018-08-31T20:56:52.652Z,14.67
2018-08-31T20:59:57.697Z,12.90
2018-08-31T21:03:02.174Z,16.23
2018-08-31T21:06:06.696Z,17.17
2018-08-31T21:09:11.986Z,12.77
2018-08-31T21:12:16.451Z,14.93
2018-08-31T21:15:20.880Z,15.67
2018-08-31T21:18:25.320Z,17.80
2018-08-31T21:21:29.810Z,15.83
2018-08-31T21:24:34.234Z,15.47
2018-08-31T21:27:38.679Z,15.30
2018-08-31T21:30:43.173Z,14.67
2018-08-31T21:33:47.634Z,14.93
2018-08-31T21:36:52.102Z,12.70
2018-08-31T21:39:56.541Z,12.77
2018-08-31T21:43:00.973Z,15.47
2018-08-31T21:46:05.418Z,17.70
2018-08-31T21:49:09.926Z,13.97
2018-08-31T21:52:14.380Z,17.97
2018-08-31T21:55:18.876Z,15.13
2018-08-31T21:58:23.344Z,15.07
2018-08-31T22:01:32.905Z,15.60
2018-08-31T22:04:37.329Z,14.57
2018-08-31T22:07:41.823Z,15.03
2018-08-31T22:10:46.243Z,17.43
2018-08-31T22:13:50.772Z,14.47
2018-08-31T22:16:55.298Z,15.17
2018-08-31T22:19:59.723Z,18.07
2018-08-31T22:23:04.165Z,17.50
2018-08-31T22:26:08.652Z,21.03
2018-08-31T22:29:13.079Z,20.17
2018-08-31T22:32:17.513Z,23.07
2018-08-31T22:35:21.954Z,20.47
2018-08-31T22:38:26.411Z,20.03
2018-08-31T22:41:30.856Z,18.97
2018-08-31T22:44:36.747Z,18.20
2018-08-31T22:47:41.406Z,21.00
2018-08-31T22:50:45.829Z,21.80
2018-08-31T22:53:50.498Z,26.03
2018-08-31T22:56:54.930Z,27.47
2018-08-31T22:59:59.392Z,25.50
2018-08-31T23:03:03.866Z,25.23
2018-08-31T23:06:08.302Z,22.87
2018-08-31T23:09:12.853Z,24.73
2018-08-31T23:12:17.317Z,22.30
2018-08-31T23:15:21.801Z,26.13
2018-08-31T23:18:26.328Z,26.10
2018-08-31T23:21:30.854Z,29.73
2018-08-31T23:24:35.298Z,26.20
2018-08-31T23:27:39.730Z,28.73
2018-08-31T23:30:44.229Z,31.43
2018-08-31T23:33:48.676Z,26.70
2018-08-31T23:36:53.090Z,30.40
2018-08-31T23:39:57.521Z,31.67
2018-08-31T23:43:02.074Z,29.07
2018-08-31T23:46:06.530Z,29.67
2018-08-31T23:49:10.994Z,30.57
2018-08-31T23:52:15.434Z,30.47
2018-08-31T23:55:19.906Z,30.33
2018-08-31T23:58:24.353Z,36.13
